Time;durP1;ratioP1;P1;durP2;ratioP2;P2;SDS_P1;SDS_P2;PMS_P1;PMS_P2;Temp;Humidity;BMP_temperature;BMP_pressure;BME280_temperature;BME280_humidity;BME280_pressure;Samples;Min_cycle;Max_cycle;Signal;HPM_P1;HPM_P2
2021/08/28 00:01:01;;;;;;;23.95;18.20;;;;;;;15.75;89.29;100722.47;1744786;82;20901;-73
2021/08/28 00:03:28;;;;;;;21.62;19.10;;;;;;;15.73;89.18;100733.65;1744590;81;20877;-73
2021/08/28 00:05:55;;;;;;;22.82;18.50;;;;;;;15.69;89.16;100727.38;1744640;81;20877;-73
2021/08/28 00:08:22;;;;;;;21.90;19.48;;;;;;;15.66;89.23;100732.43;1744447;82;21481;-74
2021/08/28 00:10:49;;;;;;;21.33;19.07;;;;;;;15.64;89.38;100728.23;1744745;82;21422;-74
2021/08/28 00:13:16;;;;;;;26.73;19.48;;;;;;;15.62;89.35;100729.66;1744821;82;20857;-73
2021/08/28 00:15:43;;;;;;;23.50;17.87;;;;;;;15.60;89.43;100731.59;1744610;82;20924;-73
2021/08/28 00:18:10;;;;;;;24.12;19.25;;;;;;;15.57;89.48;100731.84;1744502;82;20909;-74
2021/08/28 00:20:38;;;;;;;24.37;19.20;;;;;;;15.53;89.55;100736.52;1744533;82;21976;-73
2021/08/28 00:23:05;;;;;;;22.75;19.77;;;;;;;15.54;89.88;100738.70;1743056;82;21043;-73
2021/08/28 00:25:33;;;;;;;23.30;20.82;;;;;;;15.56;90.39;100736.75;1736045;81;21311;-74
2021/08/28 00:28:00;;;;;;;28.90;20.08;;;;;;;15.59;90.38;100737.85;1736029;82;20963;-74
2021/08/28 00:30:27;;;;;;;30.40;22.65;;;;;;;15.60;90.36;100743.97;1736037;82;20964;-74
2021/08/28 00:32:55;;;;;;;29.80;21.90;;;;;;;15.60;90.25;100746.62;1736263;81;21827;-74
2021/08/28 00:35:22;;;;;;;26.45;20.95;;;;;;;15.58;90.19;100750.69;1735977;81;20841;-74
2021/08/28 00:37:50;;;;;;;26.68;20.48;;;;;;;15.56;90.18;100747.33;1735983;82;21401;-74
2021/08/28 00:40:17;;;;;;;28.92;20.75;;;;;;;15.54;90.24;100753.25;1736050;82;20976;-74
2021/08/28 00:42:50;;;;;;;30.02;19.82;;;;;;;15.50;90.23;100752.63;1736193;82;20924;-73
2021/08/28 00:45:26;;;;;;;21.95;18.77;;;;;;;15.48;90.06;100760.33;1735992;82;21131;-73
2021/08/28 00:48:04;;;;;;;20.72;18.23;;;;;;;15.44;90.01;100760.20;1736098;82;20920;-74
2021/08/28 00:50:33;;;;;;;25.20;20.20;;;;;;;15.41;90.23;100758.64;1736188;82;21443;-74
2021/08/28 00:53:05;;;;;;;26.50;19.80;;;;;;;15.41;90.49;100763.94;1735927;82;20992;-73
2021/08/28 00:55:42;;;;;;;29.40;20.90;;;;;;;15.40;90.59;100760.91;1736221;82;20944;-73
2021/08/28 00:58:09;;;;;;;28.75;22.25;;;;;;;15.40;90.65;100762.23;1745854;82;21726;-75
2021/08/28 01:01:02;;;;;;;31.42;22.20;;;;;;;15.39;90.85;100760.56;1749969;82;20896;-73
2021/08/28 01:03:33;;;;;;;28.10;21.45;;;;;;;15.40;90.98;100752.98;1750144;82;21066;-73
2021/08/28 01:06:20;;;;;;;27.20;21.97;;;;;;;15.42;91.04;100758.16;1749954;82;20940;-73
2021/08/28 01:09:14;;;;;;;27.17;20.60;;;;;;;15.42;91.00;100760.80;1746747;80;20935;-73
2021/08/28 01:12:14;;;;;;;36.00;22.60;;;;;;;15.39;91.08;100755.77;1746521;80;21208;-74
2021/08/28 01:14:45;;;;;;;32.83;21.85;;;;;;;15.39;91.15;100760.56;1748010;80;20837;-73
2021/08/28 01:17:14;;;;;;;24.40;20.65;;;;;;;15.39;91.24;100753.95;1723052;82;20857;-73
2021/08/28 01:19:47;;;;;;;26.17;20.70;;;;;;;15.39;91.21;100757.09;1749995;82;20940;-72
2021/08/28 01:22:17;;;;;;;24.70;20.00;;;;;;;15.39;91.15;100753.95;1745874;82;20888;-74
2021/08/28 01:25:06;;;;;;;26.42;19.67;;;;;;;15.40;91.08;100748.19;1658397;85;21180;-74
2021/08/28 01:27:57;;;;;;;26.35;17.70;;;;;;;15.38;90.77;100752.26;1624428;87;21501;-73
2021/08/28 01:30:24;;;;;;;27.85;21.10;;;;;;;15.33;90.39;100747.33;1622311;87;21093;-74
2021/08/28 01:32:51;;;;;;;28.73;20.20;;;;;;;15.30;90.36;100754.19;1624028;87;20967;-72
2021/08/28 01:35:20;;;;;;;23.85;19.02;;;;;;;15.29;90.52;100760.42;1624152;87;21019;-72
2021/08/28 01:37:47;;;;;;;22.60;18.23;;;;;;;15.28;90.60;100758.75;1624141;87;21151;-72
2021/08/28 01:40:28;;;;;;;26.65;19.30;;;;;;;15.26;90.53;100752.74;1580453;89;20965;-73
2021/08/28 01:42:57;;;;;;;29.40;18.92;;;;;;;15.25;90.39;100752.85;1529856;91;20960;-73
2021/08/28 01:45:25;;;;;;;23.27;19.07;;;;;;;15.22;90.51;100751.30;1538537;93;21551;-72
2021/08/28 01:47:54;;;;;;;23.02;18.52;;;;;;;15.20;90.62;100753.70;1519169;93;20971;-73
2021/08/28 01:50:23;;;;;;;23.20;19.40;;;;;;;15.18;90.66;100757.77;1580513;90;21571;-72
2021/08/28 01:52:52;;;;;;;27.80;18.48;;;;;;;15.17;90.62;100756.59;1580697;89;20997;-74
2021/08/28 01:55:21;;;;;;;28.95;20.60;;;;;;;15.13;90.55;100748.87;1591217;86;21051;-74
2021/08/28 01:57:52;;;;;;;24.67;19.25;;;;;;;15.12;90.63;100752.50;1660377;85;21466;-73
2021/08/28 02:00:41;;;;;;;23.52;18.27;;;;;;;15.09;90.63;100752.71;1643814;86;21445;-74
2021/08/28 02:03:08;;;;;;;25.55;18.17;;;;;;;15.06;90.61;100744.20;1667126;86;21091;-75
2021/08/28 02:05:39;;;;;;;21.97;18.40;;;;;;;15.06;90.61;100744.20;1667017;86;20931;-74
2021/08/28 02:08:11;;;;;;;24.98;20.08;;;;;;;15.05;90.73;100751.75;1667039;86;21516;-73
2021/08/28 02:10:52;;;;;;;22.30;20.00;;;;;;;15.03;90.85;100748.38;1644515;86;21560;-73
2021/08/28 02:13:44;;;;;;;22.22;18.80;;;;;;;15.02;91.06;100757.28;1666574;86;20983;-74
2021/08/28 02:16:13;;;;;;;23.45;18.40;;;;;;;15.02;91.18;100758.11;1681296;82;21555;-73
2021/08/28 02:18:53;;;;;;;22.30;18.17;;;;;;;15.03;91.36;100762.91;1734977;82;20941;-74
2021/08/28 02:21:22;;;;;;;20.62;18.50;;;;;;;15.04;91.40;100760.64;1731406;82;20956;-74
2021/08/28 02:24:06;;;;;;;24.70;17.98;;;;;;;15.04;91.29;100764.12;1687766;82;20996;-74
2021/08/28 02:26:40;;;;;;;25.65;19.25;;;;;;;15.03;91.07;100761.59;1689142;82;20944;-75
2021/08/28 02:29:28;;;;;;;23.62;17.98;;;;;;;15.00;90.92;100761.83;1735117;82;21122;-75
2021/08/28 02:31:58;;;;;;;25.23;17.73;;;;;;;14.97;90.86;100753.67;1733986;82;20890;-74
2021/08/28 02:34:23;;;;;;;23.85;18.52;;;;;;;14.96;90.86;100762.53;1734697;82;20962;-73
2021/08/28 02:36:52;;;;;;;23.73;17.23;;;;;;;14.93;90.94;100757.50;1734143;82;21363;-74
2021/08/28 02:39:20;;;;;;;20.92;16.10;;;;;;;14.92;91.07;100759.30;1734877;82;21014;-74
2021/08/28 02:41:48;;;;;;;21.40;17.32;;;;;;;14.92;91.12;100762.44;1710725;82;21140;-74
2021/08/28 02:44:15;;;;;;;26.30;17.62;;;;;;;14.91;91.01;100763.38;1734644;82;20980;-75
2021/08/28 02:46:44;;;;;;;22.25;17.35;;;;;;;14.89;90.93;100766.12;1734694;82;20869;-74
2021/08/28 02:49:13;;;;;;;27.30;18.05;;;;;;;14.87;90.96;100766.74;1710686;82;21359;-75
2021/08/28 02:51:42;;;;;;;34.45;18.52;;;;;;;14.86;91.06;100768.17;1743199;81;20888;-75
2021/08/28 02:54:11;;;;;;;25.55;17.75;;;;;;;14.84;91.11;100762.99;1757738;81;21712;-75
2021/08/28 02:56:38;;;;;;;27.13;18.40;;;;;;;14.82;91.03;100767.55;1757922;81;20927;-74
2021/08/28 02:59:05;;;;;;;22.77;16.95;;;;;;;14.81;91.00;100764.56;1750609;81;21350;-75
2021/08/28 03:01:32;;;;;;;19.62;17.02;;;;;;;14.80;91.14;100772.09;1750102;80;20940;-74
2021/08/28 03:03:59;;;;;;;21.90;16.17;;;;;;;14.80;91.22;100769.95;1750386;82;21078;-74
2021/08/28 03:06:29;;;;;;;30.08;18.07;;;;;;;14.78;91.27;100771.38;1750081;82;20959;-72
2021/08/28 03:08:57;;;;;;;24.23;17.80;;;;;;;14.77;91.23;100771.51;1750002;80;20999;-73
2021/08/28 03:11:24;;;;;;;27.58;18.05;;;;;;;14.76;91.18;100779.87;1750270;82;20888;-74
2021/08/28 03:13:51;;;;;;;19.32;16.57;;;;;;;14.74;91.18;100773.91;1749841;82;20897;-74
2021/08/28 03:16:21;;;;;;;18.00;15.83;;;;;;;14.74;91.25;100781.83;1750234;82;20944;-74
2021/08/28 03:18:52;;;;;;;22.02;17.70;;;;;;;14.74;91.32;100781.83;1750070;82;20954;-75
2021/08/28 03:21:21;;;;;;;18.92;16.77;;;;;;;14.74;91.44;100789.75;1750217;80;20924;-74
2021/08/28 03:23:47;;;;;;;20.90;15.48;;;;;;;14.75;91.44;100785.30;1749731;82;21485;-75
2021/08/28 03:26:16;;;;;;;21.37;15.03;;;;;;;14.75;91.57;100785.30;1750397;80;20857;-74
2021/08/28 03:28:43;;;;;;;23.57;16.67;;;;;;;14.76;91.84;100785.16;1722758;82;20956;-73
2021/08/28 03:31:10;;;;;;;21.75;15.50;;;;;;;14.78;91.96;100785.89;1722682;82;21112;-73
2021/08/28 03:33:38;;;;;;;19.75;14.78;;;;;;;14.80;92.03;100787.11;1749955;82;20928;-72
2021/08/28 03:36:05;;;;;;;18.85;16.77;;;;;;;14.83;92.19;100789.05;1749940;82;21019;-73
2021/08/28 03:38:34;;;;;;;22.32;15.78;;;;;;;14.86;92.13;100796.73;1750149;80;21001;-73
2021/08/28 03:41:03;;;;;;;18.87;15.78;;;;;;;14.89;91.94;100799.13;1750084;82;21050;-74
2021/08/28 03:43:32;;;;;;;22.07;15.93;;;;;;;14.91;91.90;100802.98;1750134;81;21602;-74
2021/08/28 03:46:00;;;;;;;22.20;16.23;;;;;;;14.92;92.08;100806.84;1750331;82;20924;-74
2021/08/28 03:48:27;;;;;;;20.70;14.80;;;;;;;14.94;92.20;100801.45;1750139;80;21054;-73
2021/08/28 03:50:54;;;;;;;20.15;15.70;;;;;;;14.99;92.35;100803.73;1750119;82;21366;-73
2021/08/28 03:53:21;;;;;;;19.52;15.88;;;;;;;15.03;92.41;100803.84;1750253;82;20928;-73
2021/08/28 03:55:48;;;;;;;20.10;15.95;;;;;;;15.07;92.38;100809.27;1750023;81;21601;-73
2021/08/28 03:58:16;;;;;;;20.62;15.58;;;;;;;15.09;92.36;100806.86;1749864;81;21447;-74
2021/08/28 04:00:45;;;;;;;21.75;16.15;;;;;;;15.18;92.12;100814.56;1750140;82;20852;-73
2021/08/28 04:03:12;;;;;;;20.45;14.85;;;;;;;15.18;92.12;100814.56;1750018;82;20865;-73
2021/08/28 04:05:39;;;;;;;19.35;14.28;;;;;;;15.23;92.48;100812.89;1750148;82;20983;-74
2021/08/28 04:08:08;;;;;;;18.75;15.13;;;;;;;15.29;92.55;100812.43;1750060;82;22062;-74
2021/08/28 04:10:36;;;;;;;23.40;16.77;;;;;;;15.38;92.63;100811.72;1749985;82;20940;-76
2021/08/28 04:13:05;;;;;;;18.20;14.43;;;;;;;15.49;92.76;100815.69;1750120;82;20928;-75
2021/08/28 04:15:32;;;;;;;24.95;16.73;;;;;;;15.57;92.63;100819.08;1750167;82;21417;-74
2021/08/28 04:18:06;;;;;;;25.45;17.60;;;;;;;15.70;92.54;100828.22;1748326;82;20849;-73
2021/08/28 04:20:33;;;;;;;20.75;18.00;;;;;;;15.89;92.19;100831.59;1750251;82;21502;-73
2021/08/28 04:23:02;;;;;;;26.87;18.37;;;;;;;15.89;92.19;100831.59;1749367;80;21023;-73
2021/08/28 04:25:47;;;;;;;28.57;18.50;;;;;;;15.97;92.07;100833.16;1750245;82;21521;-73
2021/08/28 04:28:22;;;;;;;33.00;20.50;;;;;;;16.15;91.82;100826.39;1749414;82;21410;-73
2021/08/28 04:30:50;;;;;;;31.35;19.87;;;;;;;16.15;91.82;100826.39;1750165;80;20873;-73
2021/08/28 04:33:18;;;;;;;23.22;18.67;;;;;;;16.39;91.85;100833.34;1749890;82;21514;-73
2021/08/28 04:35:44;;;;;;;22.05;18.85;;;;;;;16.39;91.85;100833.34;1750041;82;20880;-74
2021/08/28 04:38:12;;;;;;;31.87;20.10;;;;;;;16.52;91.95;100830.05;1750007;82;20885;-74
2021/08/28 04:40:39;;;;;;;25.85;20.02;;;;;;;16.67;91.89;100832.39;1749997;82;20936;-72
2021/08/28 04:43:08;;;;;;;28.32;19.27;;;;;;;16.86;91.86;100831.75;1750449;82;20952;-74
2021/08/28 04:45:38;;;;;;;33.05;19.17;;;;;;;17.10;91.83;100831.02;1746424;82;21159;-73
2021/08/28 04:48:10;;;;;;;21.57;17.10;;;;;;;17.42;91.50;100829.26;1747847;82;20987;-73
2021/08/28 04:50:38;;;;;;;34.75;19.00;;;;;;;17.77;90.75;100836.34;1750076;82;20980;-73
2021/08/28 04:53:05;;;;;;;31.35;18.30;;;;;;;18.11;89.85;100833.90;1750397;82;20900;-73
2021/08/28 04:55:32;;;;;;;24.35;17.92;;;;;;;18.41;88.86;100836.98;1750158;82;20877;-73
2021/08/28 04:58:00;;;;;;;34.18;20.02;;;;;;;18.70;87.92;100835.67;1749946;81;21546;-73
2021/08/28 05:00:27;;;;;;;29.75;19.65;;;;;;;19.14;87.12;100827.26;1749932;80;20956;-75
2021/08/28 05:03:02;;;;;;;31.65;19.57;;;;;;;19.73;86.25;100835.95;1745221;80;20880;-74
2021/08/28 05:05:29;;;;;;;26.97;19.67;;;;;;;20.44;84.21;100831.28;1750089;80;20904;-74
2021/08/28 05:07:57;;;;;;;25.88;17.12;;;;;;;21.16;81.69;100833.92;1750255;80;21488;-73
2021/08/28 05:10:24;;;;;;;31.95;18.50;;;;;;;21.84;78.64;100841.20;1749881;82;21181;-72
2021/08/28 05:12:51;;;;;;;39.53;21.12;;;;;;;22.51;75.71;100839.93;1750279;80;20935;-74
2021/08/28 05:15:19;;;;;;;37.15;19.67;;;;;;;23.14;73.62;100842.00;1749951;82;20924;-73
2021/08/28 05:17:50;;;;;;;36.35;20.60;;;;;;;23.76;71.63;100844.03;1750358;82;20952;-73
2021/08/28 05:20:20;;;;;;;52.75;35.17;;;;;;;24.38;69.46;100841.90;1750429;82;20913;-73
2021/08/28 05:23:05;;;;;;;37.98;23.73;;;;;;;24.92;66.95;100836.17;1750114;80;21655;-74
2021/08/28 05:25:51;;;;;;;31.85;22.75;;;;;;;25.47;65.51;100840.89;1750159;82;20963;-74
2021/08/28 05:28:18;;;;;;;30.52;24.77;;;;;;;26.01;63.96;100845.48;1750161;82;21398;-75
2021/08/28 05:30:45;;;;;;;46.68;32.23;;;;;;;26.47;62.17;100842.98;1750446;82;20936;-74
2021/08/28 05:33:14;;;;;;;30.02;24.47;;;;;;;26.88;59.85;100837.83;1749997;81;21439;-74
2021/08/28 05:35:42;;;;;;;35.65;27.45;;;;;;;27.34;58.72;100840.58;1722254;82;21543;-74
2021/08/28 05:38:14;;;;;;;;;;;;;;;27.76;57.65;100836.05;1752839;82;20881;-75
2021/08/28 05:40:44;;;;;;;49.93;33.45;;;;;;;28.17;56.21;100834.38;1750018;82;20095;-75
2021/08/28 05:43:11;;;;;;;47.00;33.53;;;;;;;28.50;55.42;100835.34;1750307;82;20936;-73
2021/08/28 05:45:56;;;;;;;43.80;33.30;;;;;;;28.85;54.33;100837.84;1750238;82;20861;-74
2021/08/28 05:48:24;;;;;;;39.18;33.25;;;;;;;29.22;52.31;100834.76;1750375;82;21758;-72
2021/08/28 05:50:50;;;;;;;40.55;30.82;;;;;;;29.59;50.68;100832.38;1749964;82;21007;-74
2021/08/28 05:53:18;;;;;;;39.45;29.23;;;;;;;29.99;49.88;100831.73;1750294;82;20933;-74
2021/08/28 05:55:45;;;;;;;35.25;28.35;;;;;;;30.34;48.17;100828.67;1749850;82;20928;-73
2021/08/28 05:58:13;;;;;;;31.97;27.05;;;;;;;30.63;46.38;100831.28;1747462;82;21053;-73
2021/08/28 06:00:40;;;;;;;29.67;26.37;;;;;;;30.89;45.67;100828.10;1735981;81;20999;-72
2021/08/28 06:03:07;;;;;;;24.65;22.15;;;;;;;31.18;45.48;100832.83;1735906;82;20861;-74
2021/08/28 06:05:35;;;;;;;32.05;23.70;;;;;;;31.49;43.36;100835.68;1736027;81;20960;-74
2021/08/28 06:08:04;;;;;;;22.65;20.45;;;;;;;31.70;42.10;100832.50;1711844;82;21000;-73
2021/08/28 06:10:37;;;;;;;21.33;19.23;;;;;;;31.91;39.90;100838.00;1733040;82;21585;-73
2021/08/28 06:13:14;;;;;;;19.07;16.55;;;;;;;31.96;40.01;100829.98;1710309;82;21076;-73
2021/08/28 06:15:43;;;;;;;16.93;15.32;;;;;;;32.10;37.89;100825.77;1731684;82;21408;-73
2021/08/28 06:18:13;;;;;;;16.97;15.30;;;;;;;32.23;37.22;100828.84;1735990;82;20854;-74
2021/08/28 06:20:41;;;;;;;21.70;18.30;;;;;;;32.33;36.32;100827.23;1736044;82;20909;-74
2021/08/28 06:23:08;;;;;;;20.75;17.15;;;;;;;32.43;36.58;100820.69;1736023;81;21020;-74
2021/08/28 06:25:40;;;;;;;;;;;;;;;32.54;36.19;100830.49;1716742;82;22073;-74
2021/08/28 06:28:07;;;;;;;18.02;15.53;;;;;;;32.71;36.34;100835.55;1735745;82;20144;-75
2021/08/28 06:30:36;;;;;;;15.83;14.25;;;;;;;32.89;35.25;100829.73;1735878;81;20882;-73
2021/08/28 06:33:03;;;;;;;14.38;12.93;;;;;;;33.03;34.13;100829.78;1736077;82;20972;-74
2021/08/28 06:35:30;;;;;;;15.05;13.50;;;;;;;33.15;35.44;100830.66;1736050;81;21458;-70
2021/08/28 06:37:59;;;;;;;13.85;12.45;;;;;;;33.32;34.28;100829.38;1735971;81;21119;-73
2021/08/28 06:40:31;;;;;;;14.20;12.80;;;;;;;33.54;34.79;100827.41;1710905;82;21351;-73
2021/08/28 06:43:00;;;;;;;14.15;12.70;;;;;;;33.76;34.61;100824.36;1736093;82;20949;-73
2021/08/28 06:45:48;;;;;;;14.33;12.68;;;;;;;33.99;33.00;100825.34;1732610;82;20948;-71
2021/08/28 06:48:32;;;;;;;14.58;12.85;;;;;;;34.06;33.39;100836.91;1736118;82;20881;-73
2021/08/28 06:51:18;;;;;;;14.10;12.63;;;;;;;34.29;33.55;100831.13;1736093;82;21140;-82
2021/08/28 06:54:03;;;;;;;14.70;13.48;;;;;;;34.53;33.47;100838.60;1736095;82;20882;-82
2021/08/28 06:56:49;;;;;;;14.78;13.48;;;;;;;34.74;32.65;100842.00;1736091;81;20937;-82
2021/08/28 06:59:34;;;;;;;14.50;13.20;;;;;;;34.90;31.34;100834.89;1744469;82;20861;-80
2021/08/28 07:02:06;;;;;;;14.70;13.38;;;;;;;35.01;31.79;100846.78;1749624;82;22067;-80
2021/08/28 07:04:37;;;;;;;12.65;11.65;;;;;;;35.20;32.25;100843.29;1748623;82;21524;-82
2021/08/28 07:07:15;;;;;;;16.87;12.82;;;;;;;35.39;32.33;100836.44;1749038;82;20865;-81
2021/08/28 07:09:44;;;;;;;14.63;13.15;;;;;;;35.57;31.96;100843.49;1750051;82;21457;-80
2021/08/28 07:13:35;;;;;;;14.38;12.63;;;;;;;35.92;30.29;100834.67;1797613;79;22160;-81
2021/08/28 07:16:02;;;;;;;15.83;13.95;;;;;;;35.93;30.55;100833.06;1758457;80;20944;-82
2021/08/28 07:18:30;;;;;;;14.47;12.98;;;;;;;35.94;29.95;100831.16;1758333;81;21092;-81
2021/08/28 07:20:57;;;;;;;15.63;14.15;;;;;;;36.02;30.62;100832.89;1758133;80;20838;-82
2021/08/28 07:23:24;;;;;;;15.53;13.93;;;;;;;36.12;29.48;100832.19;1758651;80;20959;-82
2021/08/28 07:25:55;;;;;;;15.30;13.80;;;;;;;36.09;29.76;100830.77;1758589;80;21409;-82
2021/08/28 07:28:22;;;;;;;15.10;13.62;;;;;;;36.14;30.35;100824.56;1758632;80;20916;-78
2021/08/28 07:30:58;;;;;;;14.05;12.73;;;;;;;36.18;29.86;100821.61;1758605;80;21998;-75
2021/08/28 07:33:25;;;;;;;12.95;11.68;;;;;;;36.30;31.20;100833.18;1758250;80;20999;-77
2021/08/28 07:35:54;;;;;;;17.75;11.78;;;;;;;36.36;29.36;100823.14;1758347;81;20897;-71
2021/08/28 07:38:20;;;;;;;15.55;12.43;;;;;;;36.50;29.94;100828.45;1758125;80;20999;-74
2021/08/28 07:40:47;;;;;;;13.53;12.30;;;;;;;36.68;31.15;100820.42;1758505;80;20849;-74
2021/08/28 07:43:15;;;;;;;14.03;11.18;;;;;;;36.83;29.82;100825.19;1758269;81;21143;-73
2021/08/28 07:45:44;;;;;;;12.82;11.63;;;;;;;36.93;28.79;100828.01;1757664;80;20916;-74
2021/08/28 07:48:12;;;;;;;11.33;10.23;;;;;;;36.89;27.85;100825.52;1757769;80;20935;-76
2021/08/28 07:50:41;;;;;;;13.18;10.85;;;;;;;36.91;27.48;100828.00;1758178;81;21547;-75
2021/08/28 07:53:08;;;;;;;12.10;10.82;;;;;;;36.84;27.00;100824.13;1758371;80;21489;-76
2021/08/28 07:55:38;;;;;;;12.20;9.40;;;;;;;36.76;27.98;100821.05;1758270;80;20885;-79
2021/08/28 07:58:05;;;;;;;10.35;9.35;;;;;;;36.88;27.54;100824.41;1758171;80;20881;-74
2021/08/28 08:00:32;;;;;;;9.68;8.98;;;;;;;37.01;26.99;100825.31;1758357;80;21322;-77
2021/08/28 08:02:59;;;;;;;9.25;8.40;;;;;;;37.09;26.33;100823.48;1758320;81;20990;-76
2021/08/28 08:05:44;;;;;;;11.12;9.05;;;;;;;37.08;26.34;100821.83;1758405;81;20868;-69
2021/08/28 08:08:25;;;;;;;10.23;9.20;;;;;;;37.11;26.49;100822.68;1697590;83;22109;-69
2021/08/28 08:11:09;;;;;;;10.32;9.33;;;;;;;37.17;27.68;100819.41;1701703;83;20938;-70
2021/08/28 08:13:54;;;;;;;8.83;8.03;;;;;;;37.29;27.96;100817.30;1697680;83;21665;-72
2021/08/28 08:16:36;;;;;;;9.25;8.28;;;;;;;37.37;25.89;100811.86;1671159;83;20994;-72
2021/08/28 08:19:05;;;;;;;8.53;7.72;;;;;;;37.34;27.27;100811.85;1700010;83;20990;-72
2021/08/28 08:21:42;;;;;;;10.30;9.23;;;;;;;37.47;28.11;100826.15;1701144;83;21870;-71
2021/08/28 08:24:13;;;;;;;8.80;7.90;;;;;;;37.59;27.05;100821.29;1687611;82;21028;-72
2021/08/28 08:26:51;;;;;;;7.47;6.80;;;;;;;37.70;27.06;100824.89;1688437;83;21417;-71
2021/08/28 08:29:36;;;;;;;7.35;6.65;;;;;;;37.83;25.16;100824.94;1685007;84;20919;-71
2021/08/28 08:32:05;;;;;;;8.58;7.78;;;;;;;37.83;25.19;100818.91;1699710;82;20951;-74
2021/08/28 08:34:37;;;;;;;7.55;6.80;;;;;;;37.96;26.42;100823.06;1685296;83;21160;-72
2021/08/28 08:37:05;;;;;;;7.80;7.17;;;;;;;38.08;25.55;100812.69;1697231;84;20935;-72
2021/08/28 08:39:33;;;;;;;8.00;7.20;;;;;;;38.21;24.47;100816.83;1697159;83;20978;-72
2021/08/28 08:42:00;;;;;;;6.85;6.25;;;;;;;38.16;24.22;100816.83;1697077;83;20982;-81
2021/08/28 08:44:29;;;;;;;8.50;6.47;;;;;;;38.05;24.49;100812.43;1708077;81;20916;-84
2021/08/28 08:46:57;;;;;;;7.10;6.53;;;;;;;38.06;25.47;100809.95;1758128;81;21104;-82
2021/08/28 08:49:25;;;;;;;7.67;6.22;;;;;;;38.14;25.43;100806.69;1760458;81;20924;-82
2021/08/28 08:51:52;;;;;;;7.45;6.72;;;;;;;38.22;25.50;100806.16;1761001;78;21409;-81
2021/08/28 08:54:20;;;;;;;7.67;6.97;;;;;;;38.33;24.52;100806.96;1742133;78;20940;-81
2021/08/28 08:56:48;;;;;;;6.95;6.30;;;;;;;38.28;24.15;100801.48;1761116;79;20881;-80
2021/08/28 08:59:15;;;;;;;7.60;6.90;;;;;;;38.26;25.65;100799.56;1759738;80;21058;-82
2021/08/28 09:01:44;;;;;;;7.05;6.55;;;;;;;38.26;25.54;100795.45;1757864;80;21488;-81
2021/08/28 09:04:30;;;;;;;6.90;6.37;;;;;;;38.18;25.24;100791.88;1757986;81;20924;-80
2021/08/28 09:06:59;;;;;;;8.43;6.95;;;;;;;38.25;24.92;100791.91;1757902;81;21003;-80
2021/08/28 09:09:27;;;;;;;7.53;6.65;;;;;;;38.34;26.01;100794.37;1757782;80;20923;-76
2021/08/28 09:12:03;;;;;;;7.25;6.67;;;;;;;38.51;26.35;100786.44;1757274;80;21242;-78
2021/08/28 09:14:30;;;;;;;7.40;5.40;;;;;;;38.67;26.15;100787.27;1757862;81;20857;-78
2021/08/28 09:16:58;;;;;;;6.87;6.17;;;;;;;38.77;25.07;100786.67;1758181;81;21367;-77
2021/08/28 09:19:39;;;;;;;6.95;6.35;;;;;;;38.93;24.49;100796.25;1716640;81;21065;-77
2021/08/28 09:22:07;;;;;;;8.65;5.97;;;;;;;39.02;24.87;100799.28;1758608;80;20924;-77
2021/08/28 09:24:44;;;;;;;6.45;5.92;;;;;;;39.14;25.75;100797.88;1758092;81;21135;-78
2021/08/28 09:27:11;;;;;;;6.65;6.00;;;;;;;39.23;25.35;100794.56;1758129;81;21034;-78
2021/08/28 09:29:43;;;;;;;6.65;5.78;;;;;;;39.27;25.85;100797.03;1757922;80;20885;-79
2021/08/28 09:32:11;;;;;;;6.00;5.55;;;;;;;39.34;24.36;100791.50;1758262;81;20872;-78
2021/08/28 09:34:38;;;;;;;5.67;5.08;;;;;;;39.32;24.67;100790.95;1757911;80;20912;-78
2021/08/28 09:37:06;;;;;;;6.42;5.83;;;;;;;39.31;24.98;100798.08;1716711;81;21080;-78
2021/08/28 09:39:47;;;;;;;6.85;6.28;;;;;;;39.28;25.17;100795.91;1757951;81;21350;-76
2021/08/28 09:42:22;;;;;;;7.08;6.47;;;;;;;39.30;25.38;100788.22;1758166;81;20980;-77
2021/08/28 09:44:51;;;;;;;11.25;6.83;;;;;;;39.42;24.64;100792.04;1757904;81;20919;-77
2021/08/28 09:47:24;;;;;;;7.42;6.62;;;;;;;39.44;24.07;100792.02;1757991;81;20885;-80
2021/08/28 09:49:53;;;;;;;7.10;6.08;;;;;;;39.44;23.79;100800.25;1758024;81;22381;-81
2021/08/28 09:52:26;;;;;;;6.72;6.22;;;;;;;39.37;23.83;100795.59;1758236;81;21034;-81
2021/08/28 09:54:54;;;;;;;6.30;5.72;;;;;;;39.27;23.58;100790.17;1757952;80;21467;-81
2021/08/28 09:57:24;;;;;;;6.17;5.67;;;;;;;39.26;24.65;100797.55;1758291;81;21019;-80
2021/08/28 09:59:58;;;;;;;6.90;6.10;;;;;;;39.21;24.12;100791.28;1742099;81;21409;-80
2021/08/28 10:02:29;;;;;;;;;;;;;;;39.03;25.42;100782.55;1744902;81;21165;-81
2021/08/28 10:04:56;;;;;;;7.47;6.87;;;;;;;38.69;25.23;100785.08;1756798;80;20188;-82
2021/08/28 10:07:28;;;;;;;7.10;6.30;;;;;;;38.39;25.13;100787.25;1758409;80;20928;-80
2021/08/28 10:09:59;;;;;;;;;;;;;;;38.13;25.02;100784.48;1760651;80;20896;-81
2021/08/28 10:12:29;;;;;;;7.42;6.80;;;;;;;38.00;25.30;100779.50;1756087;80;20487;-80
2021/08/28 10:14:56;;;;;;;6.65;6.03;;;;;;;37.98;25.34;100778.98;1734279;82;21122;-81
2021/08/28 10:17:24;;;;;;;7.25;6.58;;;;;;;38.11;25.99;100780.67;1745734;81;20987;-79
2021/08/28 10:19:52;;;;;;;7.70;6.50;;;;;;;38.22;24.90;100778.77;1745237;81;20921;-79
2021/08/28 10:22:21;;;;;;;8.25;6.67;;;;;;;38.14;24.76;100786.14;1744805;81;21386;-79
2021/08/28 10:24:53;;;;;;;7.90;7.10;;;;;;;37.88;24.90;100790.16;1744751;82;21351;-83
2021/08/28 10:27:21;;;;;;;7.42;6.70;;;;;;;37.59;25.16;100780.23;1744727;82;21812;-80
2021/08/28 10:29:49;;;;;;;7.72;6.78;;;;;;;37.43;25.81;100773.05;1745150;81;21387;-82
2021/08/28 10:32:15;;;;;;;9.50;7.47;;;;;;;37.38;25.98;100777.14;1744590;81;21540;-82
2021/08/28 10:34:43;;;;;;;7.33;6.45;;;;;;;37.33;26.44;100770.55;1744462;82;20913;-85
2021/08/28 10:37:10;;;;;;;7.25;6.65;;;;;;;37.48;26.77;100777.16;1744473;81;20889;-82
2021/08/28 10:39:37;;;;;;;7.85;6.50;;;;;;;37.55;27.67;100777.75;1744716;81;21184;-81
2021/08/28 10:42:06;;;;;;;7.97;6.60;;;;;;;37.64;27.95;100772.06;1744523;81;20928;-79
2021/08/28 10:44:34;;;;;;;9.20;6.53;;;;;;;37.75;28.13;100770.15;1744575;80;20933;-80
2021/08/28 10:47:26;;;;;;;7.42;6.72;;;;;;;37.90;28.38;100768.00;1744489;81;20948;-82
2021/08/28 10:49:57;;;;;;;8.38;7.67;;;;;;;38.03;28.48;100771.61;1740294;81;22044;-80
2021/08/28 10:52:25;;;;;;;7.30;6.53;;;;;;;38.19;27.43;100767.52;1744504;80;22063;-83
2021/08/28 10:54:59;;;;;;;7.17;6.47;;;;;;;38.15;25.88;100771.34;1744457;81;20992;-80
2021/08/28 10:57:28;;;;;;;7.90;6.95;;;;;;;38.05;26.35;100769.98;1744606;81;20893;-84
2021/08/28 11:00:03;;;;;;;7.40;6.80;;;;;;;37.94;26.68;100777.32;1744803;80;20964;-84
2021/08/28 11:02:58;;;;;;;7.60;6.90;;;;;;;37.87;27.01;100774.84;1744846;81;20924;-85
2021/08/28 11:05:30;;;;;;;7.12;6.53;;;;;;;37.81;27.93;100784.13;1744860;81;21126;-83
2021/08/28 11:07:59;;;;;;;6.97;6.47;;;;;;;37.72;28.27;100781.09;1744905;81;20905;-84
2021/08/28 11:10:27;;;;;;;8.00;6.72;;;;;;;37.69;28.58;100776.73;1744708;81;20932;-84
2021/08/28 11:13:04;;;;;;;7.22;6.62;;;;;;;37.73;28.28;100778.66;1747105;80;20964;-83
2021/08/28 11:15:36;;;;;;;7.80;7.20;;;;;;;37.78;28.05;100781.12;1758212;80;21018;-84
2021/08/28 11:18:10;;;;;;;;;;;;;;;37.57;27.47;100777.50;1761020;81;21171;-82
2021/08/28 11:20:51;;;;;;;8.50;7.72;;;;;;;37.45;27.75;100777.70;1758134;81;20069;-82
2021/08/28 11:23:20;;;;;;;7.80;7.03;;;;;;;37.26;28.71;100770.50;1758020;80;21393;-79
2021/08/28 11:25:51;;;;;;;7.92;7.12;;;;;;;37.11;28.15;100773.45;1757843;81;20900;-79
2021/08/28 11:28:21;;;;;;;8.45;7.42;;;;;;;36.98;28.56;100769.80;1757888;81;20841;-79
2021/08/28 11:30:53;;;;;;;7.65;6.95;;;;;;;36.86;28.51;100767.80;1757982;80;21149;-79
2021/08/28 11:33:27;;;;;;;9.30;8.05;;;;;;;36.62;28.15;100770.94;1758421;81;21366;-77